createdAt,value
2017-12-02T00:02:05.590Z,85.20
2017-12-02T00:04:33.678Z,85.80
2017-12-02T00:07:01.857Z,84.50
2017-12-02T00:09:29.926Z,84.90
2017-12-02T00:11:57.995Z,85.20
2017-12-02T00:14:26.066Z,84.70
2017-12-02T00:16:54.142Z,84.50
2017-12-02T00:19:22.309Z,84.00
2017-12-02T00:21:50.491Z,82.60
2017-12-02T00:24:18.558Z,83.20
2017-12-02T00:26:46.626Z,83.60
2017-12-02T00:29:14.716Z,82.70
2017-12-02T00:31:42.771Z,82.00
2017-12-02T00:34:10.863Z,81.00
2017-12-02T00:36:39.042Z,81.90
2017-12-02T00:39:07.210Z,82.20
2017-12-02T00:41:35.365Z,82.70
2017-12-02T00:44:03.449Z,82.60
2017-12-02T00:46:31.490Z,82.80
2017-12-02T00:48:59.565Z,81.90
2017-12-02T00:51:27.626Z,81.50
2017-12-02T00:53:56.466Z,81.20
2017-12-02T00:56:24.614Z,81.30
2017-12-02T00:58:53.819Z,82.30
2017-12-02T01:01:21.886Z,81.80
2017-12-02T01:03:50.710Z,81.80
2017-12-02T01:06:18.852Z,81.60
2017-12-02T01:08:46.534Z,82.20
2017-12-02T01:11:16.038Z,81.70
2017-12-02T01:13:43.661Z,80.80
2017-12-02T01:16:11.638Z,81.00
2017-12-02T01:18:39.345Z,81.40
2017-12-02T01:21:06.882Z,81.80
2017-12-02T01:23:34.461Z,80.90
2017-12-02T01:26:02.007Z,81.10
2017-12-02T01:28:29.538Z,81.70
2017-12-02T01:30:57.057Z,80.60
2017-12-02T01:33:25.385Z,80.40
2017-12-02T01:35:52.965Z,80.60
2017-12-02T01:38:20.530Z,80.80
2017-12-02T01:40:48.089Z,81.90
2017-12-02T01:43:16.070Z,82.60
2017-12-02T01:45:44.251Z,82.20
2017-12-02T01:48:13.102Z,83.30
2017-12-02T01:50:41.186Z,83.10
2017-12-02T01:53:09.242Z,82.40
2017-12-02T01:55:37.314Z,84.10
2017-12-02T01:58:05.495Z,82.70
2017-12-02T02:00:34.495Z,81.70
2017-12-02T02:03:02.578Z,80.60
2017-12-02T02:05:30.729Z,80.60
2017-12-02T02:07:58.913Z,81.60
2017-12-02T02:10:26.998Z,82.50
2017-12-02T02:12:54.621Z,83.00
2017-12-02T02:15:22.242Z,81.70
2017-12-02T02:17:49.786Z,81.60
2017-12-02T02:20:17.366Z,81.60
2017-12-02T02:22:45.727Z,81.60
2017-12-02T02:27:42.089Z,82.00
2017-12-02T02:30:10.451Z,81.40
2017-12-02T02:32:37.997Z,81.90
2017-12-02T02:35:05.557Z,81.60
2017-12-02T02:37:33.843Z,81.60
2017-12-02T02:40:01.380Z,81.60
2017-12-02T02:42:29.348Z,80.90
2017-12-02T02:44:57.429Z,81.00
2017-12-02T02:47:25.494Z,80.50
2017-12-02T02:49:53.679Z,80.50
2017-12-02T02:52:21.803Z,81.20
2017-12-02T02:54:50.630Z,82.00
2017-12-02T02:57:18.699Z,82.00
2017-12-02T02:59:46.803Z,82.00
2017-12-02T03:02:14.505Z,81.00
2017-12-02T03:04:42.121Z,81.60
2017-12-02T03:07:09.651Z,82.50
2017-12-02T03:09:37.244Z,82.00
2017-12-02T03:12:04.772Z,82.40
2017-12-02T03:14:32.297Z,80.80
2017-12-02T03:16:59.881Z,80.80
2017-12-02T03:19:27.404Z,81.60
2017-12-02T03:21:55.718Z,81.90
2017-12-02T03:24:23.326Z,81.90
2017-12-02T03:26:50.854Z,81.40
2017-12-02T03:29:18.438Z,82.00
2017-12-02T03:31:46.021Z,81.70
2017-12-02T03:34:13.560Z,82.00
2017-12-02T03:36:41.122Z,80.60
2017-12-02T03:39:08.641Z,79.70
2017-12-02T03:41:41.818Z,80.10
2017-12-02T03:44:09.342Z,80.40
2017-12-02T03:46:36.882Z,80.10
2017-12-02T03:49:04.410Z,80.50
2017-12-02T03:51:32.586Z,79.70
2017-12-02T03:54:00.194Z,79.40
2017-12-02T03:56:27.732Z,81.00
2017-12-02T03:58:55.802Z,80.60
2017-12-02T04:01:24.587Z,79.30
2017-12-02T04:03:52.660Z,79.30
2017-12-02T04:06:20.709Z,79.00
2017-12-02T04:08:48.790Z,78.80
2017-12-02T04:11:16.854Z,79.60
2017-12-02T04:13:44.936Z,79.60
2017-12-02T04:16:12.992Z,80.10
2017-12-02T04:18:41.062Z,79.60
2017-12-02T04:21:09.160Z,79.00
2017-12-02T04:23:37.221Z,86.00
2017-12-02T04:26:04.853Z,84.40
2017-12-02T04:28:33.186Z,87.20
2017-12-02T04:31:00.690Z,88.90
2017-12-02T04:33:28.965Z,88.00
2017-12-02T04:35:57.302Z,89.50
2017-12-02T04:38:24.858Z,90.10
2017-12-02T04:40:52.354Z,87.50
2017-12-02T04:43:20.698Z,90.50
2017-12-02T04:45:48.698Z,89.70
2017-12-02T04:48:17.528Z,86.70
2017-12-02T04:50:46.832Z,88.60
2017-12-02T04:53:14.895Z,82.80
2017-12-02T04:55:42.970Z,87.10
2017-12-02T04:58:11.055Z,86.80
2017-12-02T05:00:39.132Z,84.10
2017-12-02T05:03:07.205Z,81.10
2017-12-02T05:05:35.658Z,80.40
2017-12-02T05:08:03.751Z,86.10
2017-12-02T05:10:31.921Z,84.40
2017-12-02T05:13:00.410Z,88.70
2017-12-02T05:15:28.084Z,84.10
2017-12-02T05:17:55.631Z,87.10
2017-12-02T05:20:23.165Z,82.80
2017-12-02T05:22:50.693Z,85.80
2017-12-02T05:25:18.994Z,88.70
2017-12-02T05:27:46.590Z,85.20
2017-12-02T05:30:14.162Z,81.90
2017-12-02T05:32:41.689Z,87.20
2017-12-02T05:35:09.292Z,84.60
2017-12-02T05:37:36.814Z,75.50
2017-12-02T05:40:04.406Z,79.70
2017-12-02T05:45:00.845Z,82.40
2017-12-02T05:47:28.390Z,83.90
2017-12-02T05:49:55.974Z,84.00
2017-12-02T05:52:24.257Z,84.40
2017-12-02T05:54:51.802Z,82.60
2017-12-02T05:57:19.322Z,83.00
2017-12-02T05:59:46.931Z,83.00
2017-12-02T06:02:14.478Z,82.60
2017-12-02T06:04:41.977Z,80.70
2017-12-02T06:07:09.902Z,83.90
2017-12-02T06:09:37.970Z,75.80
2017-12-02T06:12:06.042Z,79.20
2017-12-02T06:14:35.245Z,80.80
2017-12-02T06:17:03.306Z,80.50
2017-12-02T06:19:31.477Z,79.10
2017-12-02T06:22:00.373Z,76.70
2017-12-02T06:24:28.451Z,83.50
2017-12-02T06:26:56.638Z,82.10
2017-12-02T06:29:24.785Z,82.80
2017-12-02T06:31:52.977Z,85.90
2017-12-02T06:34:21.047Z,84.90
2017-12-02T06:36:49.506Z,82.50
2017-12-02T06:39:17.997Z,81.50
2017-12-02T06:41:46.141Z,80.70
2017-12-02T06:44:14.955Z,82.20
2017-12-02T06:46:43.029Z,78.90
2017-12-02T06:49:11.284Z,80.40
2017-12-02T06:51:39.385Z,76.80
2017-12-02T06:54:07.494Z,79.80
2017-12-02T06:56:35.554Z,81.50
2017-12-02T06:59:03.625Z,82.40
2017-12-02T07:01:31.710Z,78.20
2017-12-02T07:03:59.783Z,80.00
2017-12-02T07:06:27.841Z,80.00
2017-12-02T07:08:55.922Z,78.30
2017-12-02T07:11:24.007Z,78.80
2017-12-02T07:13:52.839Z,78.10
2017-12-02T07:16:21.310Z,81.40
2017-12-02T07:18:49.769Z,79.00
2017-12-02T07:21:18.604Z,78.00
2017-12-02T07:23:47.074Z,77.90
2017-12-02T07:26:15.133Z,77.60
2017-12-02T07:28:43.205Z,70.10
2017-12-02T07:31:11.658Z,74.70
2017-12-02T07:33:39.257Z,79.00
2017-12-02T07:36:07.242Z,80.80
2017-12-02T07:38:35.426Z,83.50
2017-12-02T07:41:03.491Z,80.10
2017-12-02T07:43:31.570Z,76.20
2017-12-02T07:45:59.667Z,81.00
2017-12-02T07:48:27.810Z,84.60
2017-12-02T07:50:55.978Z,84.50
2017-12-02T07:53:24.049Z,86.10
2017-12-02T07:55:52.233Z,89.50
2017-12-02T07:58:20.815Z,89.40
2017-12-02T08:00:48.885Z,89.70
2017-12-02T08:03:16.954Z,87.70
2017-12-02T08:05:45.050Z,86.50
2017-12-02T08:08:13.202Z,86.80
2017-12-02T08:10:41.257Z,90.40
2017-12-02T08:13:09.354Z,90.10
2017-12-02T08:15:37.412Z,85.50
2017-12-02T08:18:05.582Z,84.80
2017-12-02T08:20:33.676Z,82.20
2017-12-02T08:23:02.126Z,85.30
2017-12-02T08:25:30.597Z,86.20
2017-12-02T08:27:58.704Z,85.40
2017-12-02T08:30:26.776Z,83.70
2017-12-02T08:32:55.702Z,82.50
2017-12-02T08:35:23.839Z,83.60
2017-12-02T08:37:51.930Z,85.40
2017-12-02T08:40:20.086Z,85.90
2017-12-02T08:42:48.151Z,86.10
2017-12-02T08:45:16.274Z,86.50
2017-12-02T08:47:45.103Z,86.60
2017-12-02T08:50:13.175Z,79.20
2017-12-02T08:52:41.258Z,82.20
2017-12-02T08:55:09.330Z,84.20
2017-12-02T08:57:37.512Z,82.60
2017-12-02T09:00:05.572Z,75.70
2017-12-02T09:02:33.659Z,81.50
2017-12-02T09:05:02.136Z,76.30
2017-12-02T09:07:30.207Z,76.00
2017-12-02T09:09:58.298Z,81.00
2017-12-02T09:12:26.854Z,74.40
2017-12-02T09:14:54.921Z,78.50
2017-12-02T09:17:22.978Z,75.90
2017-12-02T09:19:51.079Z,78.80
2017-12-02T09:22:19.146Z,70.90
2017-12-02T09:24:47.314Z,75.70
2017-12-02T09:27:15.390Z,71.80
2017-12-02T09:29:44.007Z,59.10
2017-12-02T09:32:12.142Z,58.80
2017-12-02T09:34:40.626Z,52.60
2017-12-02T09:37:08.701Z,54.70
2017-12-02T09:39:37.202Z,57.90
2017-12-02T09:42:05.277Z,57.10
2017-12-02T09:44:33.435Z,58.20
2017-12-02T09:49:31.414Z,69.40
2017-12-02T09:51:59.490Z,67.80
2017-12-02T09:54:27.633Z,74.50
2017-12-02T09:56:55.738Z,73.80
2017-12-02T09:59:23.800Z,73.50
2017-12-02T10:01:51.984Z,76.90
2017-12-02T10:04:20.045Z,76.50
2017-12-02T10:06:47.738Z,71.40
2017-12-02T10:09:15.301Z,70.70
2017-12-02T10:11:43.672Z,69.50
2017-12-02T10:14:11.569Z,63.20
2017-12-02T10:16:39.103Z,62.00
2017-12-02T10:19:06.666Z,65.80
2017-12-02T10:21:34.176Z,66.10
2017-12-02T10:24:02.110Z,64.00
2017-12-02T10:26:29.760Z,66.50
2017-12-02T10:28:57.255Z,70.30
2017-12-02T10:31:25.586Z,73.30
2017-12-02T10:33:53.108Z,67.80
2017-12-02T10:36:20.645Z,69.80
2017-12-02T10:38:48.918Z,71.00
2017-12-02T10:41:16.438Z,67.90
2017-12-02T10:43:44.002Z,75.10
2017-12-02T10:46:11.517Z,80.20
2017-12-02T10:48:39.013Z,71.80
2017-12-02T10:51:06.535Z,69.30
2017-12-02T10:53:34.024Z,73.90
2017-12-02T10:56:01.520Z,75.60
2017-12-02T10:58:29.042Z,70.80
2017-12-02T11:00:56.621Z,71.50
2017-12-02T11:03:24.989Z,74.50
2017-12-02T11:05:52.889Z,78.90
2017-12-02T11:08:20.409Z,76.20
2017-12-02T11:10:47.973Z,74.00
2017-12-02T11:13:15.506Z,75.90
2017-12-02T11:15:43.058Z,73.60
2017-12-02T11:18:10.648Z,76.20
2017-12-02T11:20:38.218Z,76.60
2017-12-02T11:23:06.181Z,72.70
2017-12-02T11:25:33.698Z,76.80
2017-12-02T11:28:01.970Z,82.70
2017-12-02T11:30:30.710Z,81.10
2017-12-02T11:32:58.605Z,82.70
2017-12-02T11:35:26.128Z,80.80
2017-12-02T11:37:53.650Z,80.70
2017-12-02T11:40:21.934Z,80.60
2017-12-02T11:42:49.457Z,78.80
2017-12-02T11:45:17.419Z,78.20
2017-12-02T11:47:44.885Z,75.20
2017-12-02T11:50:13.239Z,70.90
2017-12-02T11:52:40.769Z,72.50
2017-12-02T11:55:08.269Z,73.80
2017-12-02T11:57:35.784Z,76.40
2017-12-02T12:00:04.619Z,71.70
2017-12-02T12:02:32.760Z,72.60
2017-12-02T12:05:00.930Z,72.90
2017-12-02T12:07:29.108Z,74.60
2017-12-02T12:09:57.170Z,77.40
2017-12-02T12:12:25.232Z,72.30
2017-12-02T12:14:53.654Z,76.60
2017-12-02T12:17:21.170Z,71.00
2017-12-02T12:19:49.477Z,74.50
2017-12-02T12:22:17.039Z,70.60
2017-12-02T12:24:44.548Z,69.80
2017-12-02T12:27:12.872Z,70.80
2017-12-02T12:29:40.414Z,70.20
2017-12-02T12:32:07.977Z,71.70
2017-12-02T12:34:35.498Z,73.30
2017-12-02T12:37:03.112Z,73.80
2017-12-02T12:39:30.677Z,75.70
2017-12-02T12:41:58.816Z,76.50
2017-12-02T12:44:26.826Z,72.90
2017-12-02T12:46:54.486Z,75.00
2017-12-02T12:49:21.990Z,73.80
2017-12-02T12:51:51.226Z,73.90
2017-12-02T12:54:18.726Z,75.90
2017-12-02T12:56:46.640Z,74.70
2017-12-02T12:59:14.140Z,75.80
2017-12-02T13:01:42.904Z,73.90
2017-12-02T13:04:10.969Z,75.80
2017-12-02T13:06:39.136Z,74.10
2017-12-02T13:09:07.249Z,73.90
2017-12-02T13:11:35.310Z,72.60
2017-12-02T13:14:03.456Z,67.80
2017-12-02T13:16:31.643Z,66.00
2017-12-02T13:18:59.710Z,64.80
2017-12-02T13:21:28.190Z,64.80
2017-12-02T13:23:58.490Z,66.80
2017-12-02T13:26:27.080Z,66.90
2017-12-02T13:28:55.096Z,69.60
2017-12-02T13:31:23.460Z,70.00
2017-12-02T13:33:51.905Z,67.50
2017-12-02T13:36:20.102Z,66.80
2017-12-02T13:38:48.180Z,70.80
2017-12-02T13:41:15.772Z,68.60
2017-12-02T13:43:43.317Z,64.10
2017-12-02T13:46:10.831Z,69.70
2017-12-02T13:48:39.154Z,64.00
2017-12-02T13:51:06.704Z,65.10
2017-12-02T13:53:34.774Z,63.60
2017-12-02T13:56:02.964Z,69.70
2017-12-02T13:58:31.023Z,67.00
2017-12-02T14:00:59.177Z,63.50
2017-12-02T14:03:27.246Z,62.50
2017-12-02T14:05:55.361Z,60.10
2017-12-02T14:08:23.616Z,61.90
2017-12-02T14:10:52.499Z,64.70
2017-12-02T14:13:21.330Z,63.80
2017-12-02T14:15:50.153Z,62.80
2017-12-02T14:18:18.231Z,61.30
2017-12-02T14:20:46.294Z,60.70
2017-12-02T14:23:14.366Z,66.10
2017-12-02T14:25:42.425Z,66.50
2017-12-02T14:28:11.351Z,61.50
2017-12-02T14:30:39.400Z,64.60
2017-12-02T14:33:07.895Z,68.60
2017-12-02T14:35:35.977Z,67.90
2017-12-02T14:38:03.578Z,66.40
2017-12-02T14:40:31.088Z,65.80
2017-12-02T14:42:58.598Z,61.30
2017-12-02T14:45:26.125Z,61.00
2017-12-02T14:47:54.101Z,66.70
2017-12-02T14:50:22.957Z,67.00
2017-12-02T14:52:51.013Z,65.00
2017-12-02T14:55:19.838Z,63.40
2017-12-02T14:57:48.030Z,64.80
2017-12-02T15:00:16.485Z,65.80
2017-12-02T15:02:44.545Z,66.80
2017-12-02T15:05:12.744Z,68.00
2017-12-02T15:07:40.836Z,66.80
2017-12-02T15:10:08.875Z,68.50
2017-12-02T15:12:37.471Z,67.10
2017-12-02T15:15:05.529Z,66.30
2017-12-02T15:17:33.594Z,67.00
2017-12-02T15:20:01.667Z,67.70
2017-12-02T15:22:29.759Z,66.10
2017-12-02T15:24:58.602Z,66.00
2017-12-02T15:27:27.529Z,65.70
2017-12-02T15:29:55.738Z,65.90
2017-12-02T15:32:23.894Z,69.40
2017-12-02T15:34:51.955Z,68.90
2017-12-02T15:37:20.042Z,70.60
2017-12-02T15:39:48.207Z,68.80
2017-12-02T15:42:16.261Z,69.10
2017-12-02T15:44:44.342Z,68.70
2017-12-02T15:47:12.426Z,69.00
2017-12-02T15:49:40.486Z,74.40
2017-12-02T15:52:08.554Z,74.10
2017-12-02T15:54:36.644Z,73.70
2017-12-02T15:57:04.719Z,73.10
2017-12-02T15:59:33.171Z,75.80
2017-12-02T16:02:01.237Z,76.60
2017-12-02T16:04:29.321Z,76.70
2017-12-02T16:06:57.381Z,73.30
2017-12-02T16:09:26.294Z,71.30
2017-12-02T16:11:54.461Z,72.10
2017-12-02T16:14:22.534Z,73.00
2017-12-02T16:16:50.614Z,72.80
2017-12-02T16:19:19.454Z,74.30
2017-12-02T16:21:48.282Z,74.00
2017-12-02T16:24:16.349Z,72.30
2017-12-02T16:26:44.430Z,71.00
2017-12-02T16:29:12.514Z,71.40
2017-12-02T16:31:40.678Z,72.00
2017-12-02T16:34:08.749Z,69.30
2017-12-02T16:36:36.921Z,68.20
2017-12-02T16:39:04.981Z,70.30
2017-12-02T16:41:33.039Z,65.00
2017-12-02T16:44:01.506Z,68.80
2017-12-02T16:46:30.339Z,69.80
2017-12-02T16:48:58.520Z,73.00
2017-12-02T16:51:26.603Z,73.60
2017-12-02T16:53:54.674Z,72.30
2017-12-02T16:56:22.733Z,68.50
2017-12-02T16:58:51.318Z,70.50
2017-12-02T17:01:19.377Z,71.70
2017-12-02T17:03:47.434Z,74.90
2017-12-02T17:06:15.918Z,72.20
2017-12-02T17:08:44.000Z,74.50
2017-12-02T17:11:12.063Z,75.30
2017-12-02T17:13:40.162Z,77.10
2017-12-02T17:16:07.842Z,77.20
2017-12-02T17:18:35.893Z,73.00
2017-12-02T17:21:04.367Z,76.90
2017-12-02T17:23:32.438Z,76.20
2017-12-02T17:26:00.612Z,73.30
2017-12-02T17:28:28.695Z,72.50
2017-12-02T17:30:56.768Z,71.40
2017-12-02T17:33:24.858Z,69.70
2017-12-02T17:35:52.927Z,69.80
2017-12-02T17:38:20.994Z,69.70
2017-12-02T17:40:49.147Z,73.10
2017-12-02T17:43:17.326Z,69.60
2017-12-02T17:45:45.410Z,70.20
2017-12-02T17:48:13.474Z,69.10
2017-12-02T17:50:41.538Z,69.20
2017-12-02T17:53:09.711Z,67.70
2017-12-02T17:55:37.765Z,67.50
2017-12-02T17:58:06.271Z,69.10
2017-12-02T18:00:34.435Z,67.10
2017-12-02T18:03:02.608Z,72.30
2017-12-02T18:05:30.666Z,69.50
2017-12-02T18:07:58.770Z,69.10
2017-12-02T18:10:26.840Z,69.40
2017-12-02T18:12:55.727Z,69.00
2017-12-02T18:15:23.898Z,67.70
2017-12-02T18:17:51.957Z,68.60
2017-12-02T18:20:20.057Z,67.00
2017-12-02T18:22:48.120Z,64.00
2017-12-02T18:25:16.954Z,66.60
2017-12-02T18:27:45.889Z,69.30
2017-12-02T18:30:13.975Z,67.30
2017-12-02T18:32:42.046Z,70.20
2017-12-02T18:35:10.097Z,72.20
2017-12-02T18:37:38.933Z,71.90
2017-12-02T18:40:07.485Z,73.60
2017-12-02T18:42:35.533Z,70.70
2017-12-02T18:45:03.658Z,70.40
2017-12-02T18:47:31.801Z,69.70
2017-12-02T18:49:59.882Z,64.30
2017-12-02T18:52:27.962Z,68.70
2017-12-02T18:54:56.119Z,72.90
2017-12-02T18:57:24.189Z,72.70
2017-12-02T18:59:52.362Z,72.00
2017-12-02T19:02:20.442Z,72.70
2017-12-02T19:04:48.615Z,72.70
2017-12-02T19:07:16.674Z,67.30
2017-12-02T19:09:44.762Z,73.00
2017-12-02T19:12:12.834Z,72.60
2017-12-02T19:14:41.002Z,75.80
2017-12-02T19:17:09.164Z,72.90
2017-12-02T19:19:38.357Z,73.30
2017-12-02T19:22:06.446Z,70.60
2017-12-02T19:24:34.615Z,65.90
2017-12-02T19:27:02.794Z,68.40
2017-12-02T19:29:30.866Z,73.00
2017-12-02T19:31:58.958Z,73.60
2017-12-02T19:34:26.506Z,75.90
2017-12-02T19:36:54.438Z,73.70
2017-12-02T19:39:21.985Z,69.00
2017-12-02T19:41:50.328Z,69.00
2017-12-02T19:44:18.369Z,74.00
2017-12-02T19:46:46.434Z,73.70
2017-12-02T19:49:14.531Z,73.80
2017-12-02T19:51:42.590Z,72.90
2017-12-02T19:54:10.760Z,74.10
2017-12-02T19:56:38.825Z,70.30
2017-12-02T19:59:06.897Z,72.00
2017-12-02T20:01:34.962Z,67.50
2017-12-02T20:04:03.048Z,71.30
2017-12-02T20:06:31.117Z,71.40
2017-12-02T20:08:59.210Z,71.80
2017-12-02T20:11:27.278Z,73.00
2017-12-02T20:13:55.737Z,70.70
2017-12-02T20:16:24.214Z,68.70
2017-12-02T20:18:52.297Z,70.80
2017-12-02T20:21:20.470Z,68.80
2017-12-02T20:23:48.530Z,69.40
2017-12-02T20:26:16.610Z,71.00
2017-12-02T20:28:44.691Z,73.00
2017-12-02T20:31:12.781Z,70.00
2017-12-02T20:33:40.862Z,68.30
2017-12-02T20:36:09.007Z,69.20
2017-12-02T20:38:37.187Z,69.50
2017-12-02T20:41:05.359Z,69.20
2017-12-02T20:43:33.487Z,68.90
2017-12-02T20:46:01.967Z,67.60
2017-12-02T20:48:30.802Z,70.40
2017-12-02T20:50:58.885Z,67.20
2017-12-02T20:53:26.961Z,67.60
2017-12-02T20:55:55.124Z,66.60
2017-12-02T20:58:23.185Z,68.80
2017-12-02T21:00:52.689Z,67.50
2017-12-02T21:03:20.792Z,66.10
2017-12-02T21:05:48.948Z,66.00
2017-12-02T21:08:17.108Z,67.00
2017-12-02T21:10:44.802Z,66.50
2017-12-02T21:13:12.361Z,64.30
2017-12-02T21:15:39.921Z,65.90
2017-12-02T21:18:07.473Z,63.60
2017-12-02T21:20:35.525Z,64.70
2017-12-02T21:23:03.598Z,64.00
2017-12-02T21:25:31.778Z,63.20
2017-12-02T21:27:59.940Z,62.90
2017-12-02T21:30:28.011Z,61.60
2017-12-02T21:32:56.065Z,62.50
2017-12-02T21:37:58.696Z,61.10
2017-12-02T21:40:26.865Z,63.00
2017-12-02T21:42:55.030Z,61.60
2017-12-02T21:45:23.214Z,61.30
2017-12-02T21:47:51.304Z,60.90
2017-12-02T21:50:19.453Z,59.80
2017-12-02T21:52:48.539Z,60.90
2017-12-02T21:55:17.058Z,59.60
2017-12-02T21:57:45.117Z,55.90
2017-12-02T22:00:13.191Z,58.60
2017-12-02T22:02:41.280Z,56.90
2017-12-02T22:05:09.417Z,59.80
2017-12-02T22:07:37.499Z,59.30
2017-12-02T22:10:05.558Z,61.70
2017-12-02T22:12:34.055Z,60.40
2017-12-02T22:15:02.225Z,59.40
2017-12-02T22:17:29.830Z,58.00
2017-12-02T22:19:58.172Z,57.90
2017-12-02T22:22:25.690Z,58.60
2017-12-02T22:24:53.998Z,59.20
2017-12-02T22:27:21.506Z,57.20
2017-12-02T22:29:50.349Z,57.30
2017-12-02T22:32:18.029Z,58.10
2017-12-02T22:34:45.580Z,57.50
2017-12-02T22:37:13.098Z,58.50
2017-12-02T22:39:41.430Z,56.10
2017-12-02T22:42:08.985Z,58.60
2017-12-02T22:44:36.550Z,61.80
2017-12-02T22:47:04.049Z,60.90
2017-12-02T22:49:32.382Z,62.00
2017-12-02T22:51:59.911Z,65.00
2017-12-02T22:54:27.414Z,66.50
2017-12-02T22:56:54.933Z,63.90
2017-12-02T22:59:22.445Z,68.60
2017-12-02T23:01:50.798Z,69.20
2017-12-02T23:04:18.357Z,67.50
2017-12-02T23:06:45.909Z,66.20
2017-12-02T23:09:13.425Z,65.30
2017-12-02T23:11:41.710Z,68.00
2017-12-02T23:14:10.093Z,66.30
2017-12-02T23:16:37.593Z,62.20
2017-12-02T23:19:05.100Z,63.60
2017-12-02T23:21:33.422Z,62.50
2017-12-02T23:24:00.942Z,59.20
2017-12-02T23:26:29.270Z,64.50
2017-12-02T23:28:57.228Z,64.20
2017-12-02T23:31:24.792Z,64.20
2017-12-02T23:33:52.314Z,63.90
2017-12-02T23:36:19.924Z,64.50
2017-12-02T23:38:47.474Z,64.70
2017-12-02T23:41:14.980Z,63.60
2017-12-02T23:43:43.248Z,66.80
2017-12-02T23:46:11.535Z,65.50
2017-12-02T23:48:39.861Z,66.00
2017-12-02T23:51:07.426Z,64.20
2017-12-02T23:53:34.977Z,63.50
2017-12-02T23:56:02.489Z,64.90
2017-12-02T23:58:30.753Z,64.90
